createdAt,value
2023-01-17T00:00:07.819Z,99.99
2023-01-17T00:01:07.752Z,99.99
2023-01-17T00:02:07.828Z,99.99
2023-01-17T00:03:07.737Z,99.99
2023-01-17T00:04:07.870Z,99.99
2023-01-17T00:05:07.706Z,99.99
2023-01-17T00:06:07.838Z,99.99
2023-01-17T00:07:07.886Z,99.99
2023-01-17T00:08:07.855Z,99.99
2023-01-17T00:09:07.637Z,99.99
2023-01-17T00:10:07.604Z,99.99
2023-01-17T00:11:07.776Z,99.99
2023-01-17T00:12:07.748Z,99.99
2023-01-17T00:13:07.983Z,99.99
2023-01-17T00:14:07.541Z,99.99
2023-01-17T00:15:07.711Z,99.99
2023-01-17T00:16:07.584Z,99.99
2023-01-17T00:17:07.483Z,99.99
2023-01-17T00:18:07.498Z,99.99
2023-01-17T00:19:07.499Z,99.99
2023-01-17T00:20:07.483Z,99.99
2023-01-17T00:21:07.524Z,99.99
2023-01-17T00:22:07.486Z,99.99
2023-01-17T00:23:07.451Z,99.99
2023-01-17T00:24:07.397Z,99.99
2023-01-17T00:25:07.402Z,99.99
2023-01-17T00:26:07.380Z,99.99
2023-01-17T00:27:07.354Z,99.99
2023-01-17T00:28:07.388Z,99.99
2023-01-17T00:29:07.536Z,99.99
2023-01-17T00:30:07.353Z,99.99
2023-01-17T00:31:07.371Z,99.99
2023-01-17T00:32:07.320Z,99.99
2023-01-17T00:33:07.299Z,99.99
2023-01-17T00:34:07.313Z,99.99
2023-01-17T00:35:07.297Z,99.99
2023-01-17T00:36:07.237Z,99.99
2023-01-17T00:37:07.230Z,99.99
2023-01-17T00:38:07.233Z,99.99
2023-01-17T00:39:07.183Z,99.99
2023-01-17T00:40:07.239Z,99.99
2023-01-17T00:41:07.209Z,99.99
2023-01-17T00:42:07.443Z,99.99
2023-01-17T00:43:07.143Z,99.99
2023-01-17T00:44:07.152Z,99.99
2023-01-17T00:45:07.116Z,99.99
2023-01-17T00:46:07.145Z,99.99
2023-01-17T00:47:07.092Z,99.99
2023-01-17T00:48:07.084Z,99.99
2023-01-17T00:49:07.073Z,99.99
2023-01-17T00:50:07.055Z,99.99
2023-01-17T00:51:07.113Z,99.99
2023-01-17T00:52:07.222Z,99.99
2023-01-17T00:53:06.998Z,99.99
2023-01-17T00:54:07.029Z,99.99
2023-01-17T00:55:07.047Z,99.99
2023-01-17T00:56:07.005Z,99.99
2023-01-17T00:57:07.013Z,99.99
2023-01-17T00:58:06.960Z,99.99
2023-01-17T00:59:06.920Z,99.99
2023-01-17T01:00:06.958Z,99.99
2023-01-17T01:01:07.070Z,99.99
2023-01-17T01:02:07.257Z,99.99
2023-01-17T01:03:06.876Z,99.99
2023-01-17T01:04:06.915Z,99.99
2023-01-17T01:05:06.856Z,99.99
2023-01-17T01:06:06.880Z,99.99
2023-01-17T01:07:06.848Z,99.99
2023-01-17T01:08:06.821Z,99.99
2023-01-17T01:09:06.808Z,99.99
2023-01-17T01:10:06.829Z,99.99
2023-01-17T01:11:06.765Z,99.99
2023-01-17T01:12:06.776Z,99.99
2023-01-17T01:13:06.974Z,99.99
2023-01-17T01:14:06.787Z,99.99
2023-01-17T01:15:06.720Z,99.99
2023-01-17T01:16:06.747Z,99.99
2023-01-17T01:17:06.715Z,99.99
2023-01-17T01:18:06.704Z,99.99
2023-01-17T01:19:06.722Z,99.99
2023-01-17T01:20:06.680Z,99.99
2023-01-17T01:21:06.682Z,99.99
2023-01-17T01:22:06.677Z,99.99
2023-01-17T01:23:06.711Z,99.99
2023-01-17T01:24:06.596Z,99.99
2023-01-17T01:25:06.609Z,99.99
2023-01-17T01:26:06.637Z,99.99
2023-01-17T01:27:06.584Z,99.99
2023-01-17T01:28:06.568Z,99.99
2023-01-17T01:29:06.525Z,99.99
2023-01-17T01:30:06.534Z,99.99
2023-01-17T01:31:06.516Z,99.99
2023-01-17T01:32:06.524Z,99.99
2023-01-17T01:33:06.528Z,99.99
2023-01-17T01:34:06.729Z,99.99
2023-01-17T01:35:06.472Z,99.99
2023-01-17T01:36:06.448Z,99.99
2023-01-17T01:37:06.464Z,99.99
2023-01-17T01:38:06.431Z,99.99
2023-01-17T01:39:06.422Z,99.99
2023-01-17T01:40:06.398Z,99.99
2023-01-17T01:41:06.370Z,99.99
2023-01-17T01:42:06.586Z,99.99
2023-01-17T01:43:06.553Z,99.99
2023-01-17T01:44:06.337Z,99.99
2023-01-17T01:45:06.320Z,99.99
2023-01-17T01:46:06.313Z,99.99
2023-01-17T01:47:06.305Z,99.99
2023-01-17T01:48:06.492Z,99.99
2023-01-17T01:49:06.283Z,99.99
2023-01-17T01:50:06.301Z,99.99
2023-01-17T01:51:06.325Z,99.99
2023-01-17T01:52:06.225Z,99.99
2023-01-17T01:53:06.225Z,99.99
2023-01-17T01:54:06.197Z,99.99
2023-01-17T01:55:06.263Z,99.99
2023-01-17T01:56:06.181Z,99.99
2023-01-17T01:57:06.179Z,99.99
2023-01-17T01:58:06.366Z,99.99
2023-01-17T01:59:06.168Z,99.99
2023-01-17T02:00:06.136Z,99.99
2023-01-17T02:01:06.191Z,99.99
2023-01-17T02:02:06.109Z,99.99
2023-01-17T02:03:06.077Z,99.99
2023-01-17T02:04:06.092Z,99.99
2023-01-17T02:05:06.104Z,99.99
2023-01-17T02:06:06.047Z,99.99
2023-01-17T02:07:06.023Z,99.99
2023-01-17T02:08:06.005Z,99.99
2023-01-17T02:09:06.025Z,99.99
2023-01-17T02:10:05.994Z,99.99
2023-01-17T02:11:05.998Z,99.99
2023-01-17T02:12:05.959Z,99.99
2023-01-17T02:13:05.957Z,99.99
2023-01-17T02:14:05.934Z,99.99
2023-01-17T02:15:05.933Z,99.99
2023-01-17T02:16:06.018Z,99.99
2023-01-17T02:17:05.920Z,99.99
2023-01-17T02:18:05.901Z,99.99
2023-01-17T02:19:05.873Z,99.99
2023-01-17T02:20:05.914Z,99.99
2023-01-17T02:21:05.900Z,99.99
2023-01-17T02:22:05.853Z,99.99
2023-01-17T02:23:05.841Z,99.99
2023-01-17T02:24:05.875Z,99.99
2023-01-17T02:25:05.818Z,99.99
2023-01-17T02:26:05.816Z,99.99
2023-01-17T02:27:05.874Z,99.99
2023-01-17T02:28:05.789Z,99.99
2023-01-17T02:29:05.785Z,99.99
2023-01-17T02:30:05.748Z,99.99
2023-01-17T02:31:05.750Z,99.99
2023-01-17T02:32:05.717Z,99.99
2023-01-17T02:33:05.829Z,99.99
2023-01-17T02:34:05.704Z,99.99
2023-01-17T02:35:05.683Z,99.99
2023-01-17T02:36:05.683Z,99.99
2023-01-17T02:37:05.626Z,99.99
2023-01-17T02:38:05.662Z,99.99
2023-01-17T02:39:05.652Z,99.99
2023-01-17T02:40:05.606Z,99.99
2023-01-17T02:41:05.591Z,99.99
2023-01-17T02:42:05.596Z,99.99
2023-01-17T02:43:05.641Z,99.99
2023-01-17T02:44:05.560Z,99.99
2023-01-17T02:45:05.539Z,99.99
2023-01-17T02:46:05.563Z,99.99
2023-01-17T02:47:05.727Z,99.99
2023-01-17T02:48:05.499Z,99.99
2023-01-17T02:49:05.465Z,99.99
2023-01-17T02:50:05.474Z,99.99
2023-01-17T02:51:05.453Z,99.99
2023-01-17T02:52:05.465Z,99.99
2023-01-17T02:53:05.698Z,99.99
2023-01-17T02:54:05.440Z,99.99
2023-01-17T02:55:05.398Z,99.99
2023-01-17T02:56:05.396Z,99.99
2023-01-17T02:57:05.570Z,99.99
2023-01-17T02:58:05.564Z,99.99
2023-01-17T02:59:05.402Z,99.99
2023-01-17T03:00:05.337Z,99.99
2023-01-17T03:01:05.403Z,99.99
2023-01-17T03:02:05.553Z,99.99
2023-01-17T03:03:05.330Z,99.99
2023-01-17T03:04:05.278Z,99.99
2023-01-17T03:05:05.259Z,99.99
2023-01-17T03:06:05.284Z,99.99
2023-01-17T03:07:05.234Z,99.99
2023-01-17T03:08:05.260Z,99.99
2023-01-17T03:09:05.229Z,99.99
2023-01-17T03:10:05.184Z,99.99
2023-01-17T03:11:05.206Z,99.99
2023-01-17T03:12:05.161Z,99.99
2023-01-17T03:13:05.132Z,99.99
2023-01-17T03:14:05.142Z,99.99
2023-01-17T03:15:05.139Z,99.99
2023-01-17T03:16:05.115Z,99.99
2023-01-17T03:17:05.077Z,99.99
2023-01-17T03:18:05.078Z,99.99
2023-01-17T03:19:05.046Z,99.99
2023-01-17T03:20:05.103Z,99.99
2023-01-17T03:21:05.052Z,99.99
2023-01-17T03:22:05.068Z,99.99
2023-01-17T03:23:05.056Z,99.99
2023-01-17T03:24:05.006Z,99.99
2023-01-17T03:25:04.990Z,99.99
2023-01-17T03:26:04.987Z,99.99
2023-01-17T03:27:04.973Z,99.99
2023-01-17T03:28:04.950Z,99.99
2023-01-17T03:29:04.960Z,99.99
2023-01-17T03:30:04.897Z,99.99
2023-01-17T03:31:05.179Z,99.99
2023-01-17T03:32:04.877Z,99.99
2023-01-17T03:33:04.909Z,99.99
2023-01-17T03:34:04.919Z,99.99
2023-01-17T03:35:04.885Z,99.99
2023-01-17T03:36:04.868Z,99.99
2023-01-17T03:37:04.842Z,99.99
2023-01-17T03:38:04.827Z,99.99
2023-01-17T03:39:04.792Z,99.99
2023-01-17T03:40:04.765Z,99.99
2023-01-17T03:41:04.756Z,99.99
2023-01-17T03:42:04.749Z,99.99
2023-01-17T03:43:04.738Z,99.99
2023-01-17T03:44:04.744Z,99.99
2023-01-17T03:45:04.761Z,99.99
2023-01-17T03:46:04.765Z,99.99
2023-01-17T03:47:04.703Z,99.99
2023-01-17T03:48:04.880Z,99.99
2023-01-17T03:49:04.656Z,99.99
2023-01-17T03:50:04.671Z,99.99
2023-01-17T03:51:04.666Z,99.99
2023-01-17T03:52:04.633Z,99.99
2023-01-17T03:53:04.615Z,99.99
2023-01-17T03:54:04.583Z,99.99
2023-01-17T03:55:04.592Z,99.99
2023-01-17T03:56:04.566Z,99.99
2023-01-17T03:57:04.584Z,99.99
2023-01-17T03:58:04.529Z,99.99
2023-01-17T03:59:04.731Z,99.99
2023-01-17T04:00:04.526Z,99.99
2023-01-17T04:01:04.670Z,99.99
2023-01-17T04:02:04.634Z,99.99
2023-01-17T04:03:04.508Z,99.99
2023-01-17T04:04:04.444Z,99.99
2023-01-17T04:05:04.438Z,99.99
2023-01-17T04:06:04.410Z,99.99
2023-01-17T04:07:04.610Z,99.99
2023-01-17T04:08:04.390Z,99.99
2023-01-17T04:09:04.376Z,99.99
2023-01-17T04:10:04.374Z,99.99
2023-01-17T04:11:04.341Z,99.99
2023-01-17T04:12:04.388Z,99.99
2023-01-17T04:13:04.545Z,99.99
2023-01-17T04:14:04.514Z,99.99
2023-01-17T04:15:04.299Z,99.99
2023-01-17T04:16:04.326Z,99.99
2023-01-17T04:17:04.288Z,99.99
2023-01-17T04:18:04.252Z,99.99
2023-01-17T04:19:04.254Z,99.99
2023-01-17T04:20:04.260Z,99.99
2023-01-17T04:21:04.422Z,99.99
2023-01-17T04:22:04.421Z,99.99
2023-01-17T04:23:04.178Z,99.99
2023-01-17T04:24:04.184Z,99.99
2023-01-17T04:25:04.170Z,99.99
2023-01-17T04:26:04.153Z,99.99
2023-01-17T04:27:04.127Z,99.99
2023-01-17T04:28:04.119Z,99.99
2023-01-17T04:29:04.138Z,99.99
2023-01-17T04:30:04.097Z,99.99
2023-01-17T04:31:04.162Z,99.99
2023-01-17T04:32:04.070Z,99.99
2023-01-17T04:33:04.080Z,99.99
2023-01-17T04:34:04.055Z,99.99
2023-01-17T04:35:04.046Z,99.99
2023-01-17T04:36:04.012Z,99.99
2023-01-17T04:37:04.006Z,99.99
2023-01-17T04:38:03.968Z,99.99
2023-01-17T04:39:04.020Z,99.99
2023-01-17T04:40:03.967Z,99.99
2023-01-17T04:41:04.149Z,99.99
2023-01-17T04:42:03.939Z,99.99
2023-01-17T04:43:03.928Z,99.99
2023-01-17T04:44:03.925Z,99.99
2023-01-17T04:45:03.911Z,99.99
2023-01-17T04:46:04.124Z,99.99
2023-01-17T04:47:03.904Z,99.99
2023-01-17T04:48:03.868Z,99.99
2023-01-17T04:49:03.824Z,99.99
2023-01-17T04:50:03.846Z,99.99
2023-01-17T04:51:03.860Z,99.99
2023-01-17T04:52:03.777Z,99.99
2023-01-17T04:53:03.767Z,99.99
2023-01-17T04:54:03.772Z,99.99
2023-01-17T04:55:03.736Z,99.99
2023-01-17T04:56:03.769Z,99.99
2023-01-17T04:57:03.829Z,99.99
2023-01-17T04:58:03.880Z,99.99
2023-01-17T04:59:03.688Z,99.99
2023-01-17T05:00:03.686Z,99.99
2023-01-17T05:01:03.971Z,99.99
2023-01-17T05:02:03.740Z,99.99
2023-01-17T05:03:03.744Z,99.99
2023-01-17T05:04:03.639Z,99.99
2023-01-17T05:05:03.638Z,99.99
2023-01-17T05:06:03.617Z,99.99
2023-01-17T05:07:03.744Z,99.99
2023-01-17T05:08:03.683Z,99.99
2023-01-17T05:09:03.612Z,99.99
2023-01-17T05:10:03.625Z,99.99
2023-01-17T05:11:03.548Z,99.99
2023-01-17T05:12:03.628Z,99.99
2023-01-17T05:13:03.515Z,99.99
2023-01-17T05:14:03.520Z,99.99
2023-01-17T05:15:03.457Z,99.99
2023-01-17T05:16:03.501Z,99.99
2023-01-17T05:17:03.471Z,99.99
2023-01-17T05:18:03.440Z,99.99
2023-01-17T05:19:03.445Z,99.99
2023-01-17T05:20:03.831Z,99.99
2023-01-17T05:21:03.364Z,99.99
2023-01-17T05:22:03.417Z,99.99
2023-01-17T05:23:03.368Z,99.99
2023-01-17T05:24:03.338Z,99.99
2023-01-17T05:25:03.314Z,99.99
2023-01-17T05:26:03.316Z,99.99
2023-01-17T05:27:03.370Z,99.99
2023-01-17T05:28:03.303Z,99.99
2023-01-17T05:29:03.302Z,99.99
2023-01-17T05:30:03.260Z,99.99
2023-01-17T05:31:03.274Z,99.99
2023-01-17T05:32:03.220Z,99.99
2023-01-17T05:33:03.223Z,99.99
2023-01-17T05:34:03.186Z,99.99
2023-01-17T05:35:03.185Z,99.99
2023-01-17T05:36:03.163Z,99.99
2023-01-17T05:37:03.178Z,99.99
2023-01-17T05:38:03.181Z,99.99
2023-01-17T05:39:03.207Z,99.99
2023-01-17T05:40:03.169Z,99.99
2023-01-17T05:41:03.094Z,99.99
2023-01-17T05:42:03.107Z,99.99
2023-01-17T05:43:03.087Z,99.99
2023-01-17T05:44:03.111Z,99.99
2023-01-17T05:45:03.076Z,99.99
2023-01-17T05:46:03.097Z,99.99
2023-01-17T05:47:03.037Z,99.99
2023-01-17T05:48:03.269Z,99.99
2023-01-17T05:49:02.996Z,99.99
2023-01-17T05:50:03.005Z,99.99
2023-01-17T05:51:02.955Z,99.99
2023-01-17T05:52:02.987Z,99.99
2023-01-17T05:53:03.011Z,99.99
2023-01-17T05:54:02.946Z,99.99
2023-01-17T05:55:02.972Z,99.99
2023-01-17T05:56:02.935Z,99.99
2023-01-17T05:57:02.882Z,99.99
2023-01-17T05:58:02.915Z,99.99
2023-01-17T05:59:02.879Z,99.99
2023-01-17T06:00:02.875Z,99.99
2023-01-17T06:01:02.916Z,99.99
2023-01-17T06:02:02.839Z,99.99
2023-01-17T06:03:02.809Z,99.99
2023-01-17T06:04:02.817Z,99.99
2023-01-17T06:05:03.618Z,99.99
2023-01-17T06:06:03.192Z,99.99
2023-01-17T06:07:02.746Z,99.99
2023-01-17T06:08:02.746Z,99.99
2023-01-17T06:09:02.752Z,99.99
2023-01-17T06:10:02.713Z,99.99
2023-01-17T06:11:02.745Z,99.99
2023-01-17T06:12:02.701Z,99.99
2023-01-17T06:13:02.694Z,99.99
2023-01-17T06:14:02.649Z,99.99
2023-01-17T06:15:02.855Z,99.99
2023-01-17T06:16:02.823Z,99.99
2023-01-17T06:17:02.622Z,99.99
2023-01-17T06:18:02.662Z,99.99
2023-01-17T06:19:02.603Z,99.99
2023-01-17T06:20:02.589Z,99.99
2023-01-17T06:21:02.563Z,99.99
2023-01-17T06:22:02.562Z,99.99
2023-01-17T06:23:02.629Z,99.99
2023-01-17T06:24:04.188Z,99.99
2023-01-17T06:25:02.520Z,99.99
2023-01-17T06:26:02.544Z,99.99
2023-01-17T06:27:02.544Z,99.99
2023-01-17T06:28:02.471Z,99.99
2023-01-17T06:29:02.479Z,99.99
2023-01-17T06:30:02.491Z,99.99
2023-01-17T06:31:02.639Z,99.99
2023-01-17T06:32:02.521Z,99.99
2023-01-17T06:33:02.449Z,99.99
2023-01-17T06:34:02.394Z,99.99
2023-01-17T06:35:02.384Z,99.99
2023-01-17T06:36:02.384Z,99.99
2023-01-17T06:37:02.766Z,99.99
2023-01-17T06:38:02.391Z,99.99
2023-01-17T06:39:02.351Z,99.99
2023-01-17T06:40:02.367Z,99.99
2023-01-17T06:41:02.349Z,99.99
2023-01-17T06:42:02.285Z,99.99
2023-01-17T06:43:02.306Z,99.99
2023-01-17T06:44:02.257Z,99.99
2023-01-17T06:45:02.445Z,99.99
2023-01-17T06:46:02.208Z,99.99
2023-01-17T06:47:02.244Z,99.99
2023-01-17T06:48:02.200Z,99.99
2023-01-17T06:49:02.177Z,99.99
2023-01-17T06:50:02.167Z,99.99
2023-01-17T06:51:02.166Z,99.99
2023-01-17T06:52:02.341Z,99.99
2023-01-17T06:53:02.175Z,99.99
2023-01-17T06:54:02.093Z,99.99
2023-01-17T06:55:02.108Z,99.99
2023-01-17T06:56:02.109Z,99.99
2023-01-17T06:57:02.075Z,99.99
2023-01-17T06:58:02.069Z,99.99
2023-01-17T06:59:02.129Z,99.99
2023-01-17T07:00:02.201Z,99.99
2023-01-17T07:01:02.152Z,99.99
2023-01-17T07:02:02.007Z,99.99
2023-01-17T07:03:01.980Z,99.99
2023-01-17T07:04:02.072Z,99.99
2023-01-17T07:05:01.976Z,99.99
2023-01-17T07:06:01.967Z,99.99
2023-01-17T07:07:01.951Z,99.99
2023-01-17T07:08:01.966Z,99.99
2023-01-17T07:09:01.946Z,99.99
2023-01-17T07:10:01.898Z,99.99
2023-01-17T07:11:01.925Z,99.99
2023-01-17T07:12:01.897Z,99.99
2023-01-17T07:13:01.873Z,99.99
2023-01-17T07:14:01.965Z,99.99
2023-01-17T07:15:01.905Z,99.99
2023-01-17T07:16:01.927Z,99.99
2023-01-17T07:17:01.820Z,99.99
2023-01-17T07:18:01.770Z,99.99
2023-01-17T07:19:01.787Z,99.99
2023-01-17T07:20:01.782Z,99.99
2023-01-17T07:21:01.741Z,99.99
2023-01-17T07:22:01.749Z,99.99
2023-01-17T07:23:01.720Z,99.99
2023-01-17T07:24:01.867Z,99.99
2023-01-17T07:25:01.689Z,99.99
2023-01-17T07:26:01.680Z,99.99
2023-01-17T07:27:01.699Z,99.99
2023-01-17T07:28:01.667Z,99.99
2023-01-17T07:29:01.642Z,99.99
2023-01-17T07:30:01.637Z,99.99
2023-01-17T07:31:01.701Z,99.99
2023-01-17T07:32:01.577Z,99.99
2023-01-17T07:33:01.588Z,99.99
2023-01-17T07:34:01.553Z,99.99
2023-01-17T07:35:01.556Z,99.99
2023-01-17T07:36:01.717Z,99.99
2023-01-17T07:37:01.548Z,99.99
2023-01-17T07:38:01.502Z,99.99
2023-01-17T07:39:01.496Z,99.99
2023-01-17T07:40:01.476Z,99.99
2023-01-17T07:41:01.479Z,99.77
2023-01-17T07:42:01.467Z,99.63
2023-01-17T07:43:01.437Z,99.34
2023-01-17T07:44:01.418Z,98.02
2023-01-17T07:45:01.397Z,97.16
2023-01-17T07:46:02.372Z,96.59
2023-01-17T07:47:01.405Z,95.93
2023-01-17T07:48:01.359Z,95.36
2023-01-17T07:49:01.335Z,95.12
2023-01-17T07:50:01.325Z,94.74
2023-01-17T07:51:01.544Z,94.74
2023-01-17T07:52:01.295Z,95.22
2023-01-17T07:53:01.300Z,93.32
2023-01-17T07:54:01.427Z,92.38
2023-01-17T07:55:01.261Z,92.66
2023-01-17T07:56:01.235Z,93.80
2023-01-17T07:57:01.246Z,93.65
2023-01-17T07:58:02.941Z,93.27
2023-01-17T07:59:01.205Z,94.13
2023-01-17T08:00:01.209Z,93.56
2023-01-17T08:01:01.289Z,92.23
2023-01-17T08:02:01.371Z,91.47
2023-01-17T08:03:01.230Z,92.14
2023-01-17T08:04:01.219Z,90.24
2023-01-17T08:05:01.143Z,91.28
2023-01-17T08:06:01.119Z,91.61
2023-01-17T08:07:01.113Z,92.28
2023-01-17T08:08:01.085Z,91.61
2023-01-17T08:09:01.071Z,91.99
2023-01-17T08:10:01.081Z,90.85
2023-01-17T08:11:01.056Z,89.90
2023-01-17T08:12:01.043Z,88.86
2023-01-17T08:13:01.047Z,86.77
2023-01-17T08:14:01.013Z,88.76
2023-01-17T08:15:01.006Z,88.95
2023-01-17T08:16:01.006Z,88.95
2023-01-17T08:17:00.985Z,88.39
2023-01-17T08:18:01.007Z,87.91
2023-01-17T08:19:00.985Z,88.15
2023-01-17T08:20:00.944Z,89.00
2023-01-17T08:21:00.944Z,89.67
2023-01-17T08:22:00.930Z,90.43
2023-01-17T08:23:00.951Z,89.76
2023-01-17T08:24:00.895Z,89.67
2023-01-17T08:25:00.892Z,89.00
2023-01-17T08:26:00.887Z,87.87
2023-01-17T08:27:01.055Z,86.77
2023-01-17T08:28:00.854Z,84.48
2023-01-17T08:29:00.931Z,81.86
2023-01-17T08:30:00.845Z,80.80
2023-01-17T08:31:00.824Z,77.32
2023-01-17T08:32:00.808Z,73.99
2023-01-17T08:33:00.791Z,72.65
2023-01-17T08:34:00.796Z,72.56
2023-01-17T08:35:00.857Z,73.38
2023-01-17T08:36:00.773Z,75.34
2023-01-17T08:37:00.776Z,77.30
2023-01-17T08:38:00.769Z,77.55
2023-01-17T08:39:00.733Z,78.02
2023-01-17T08:40:00.744Z,78.93
2023-01-17T08:41:00.724Z,80.40
2023-01-17T08:42:00.916Z,79.68
2023-01-17T08:43:00.704Z,77.05
2023-01-17T08:44:00.682Z,74.96
2023-01-17T08:45:00.876Z,74.10
2023-01-17T08:46:00.826Z,73.95
2023-01-17T08:47:00.656Z,73.03
2023-01-17T08:48:00.670Z,71.51
2023-01-17T08:49:00.868Z,71.83
2023-01-17T08:50:00.630Z,70.69
2023-01-17T08:51:00.678Z,69.35
2023-01-17T08:52:00.664Z,68.91
2023-01-17T08:53:01.330Z,68.44
2023-01-17T08:54:00.615Z,68.63
2023-01-17T08:55:00.654Z,67.52
2023-01-17T08:56:00.589Z,66.38
2023-01-17T08:57:00.803Z,66.28
2023-01-17T08:58:00.581Z,66.56
2023-01-17T08:59:00.551Z,67.10
2023-01-17T09:00:00.551Z,67.48
2023-01-17T09:01:00.710Z,67.71
2023-01-17T09:02:00.740Z,66.31
2023-01-17T09:03:00.532Z,65.93
2023-01-17T09:04:00.630Z,64.69
2023-01-17T09:05:00.513Z,65.74
2023-01-17T09:06:00.520Z,64.02
2023-01-17T09:07:00.549Z,63.54
2023-01-17T09:08:00.522Z,63.35
2023-01-17T09:09:00.520Z,64.78
2023-01-17T09:10:00.532Z,65.10
2023-01-17T09:11:00.485Z,63.48
2023-01-17T09:12:00.484Z,62.43
2023-01-17T09:13:00.672Z,62.62
2023-01-17T09:14:00.672Z,63.29
2023-01-17T09:15:00.467Z,63.54
2023-01-17T09:16:00.470Z,64.56
2023-01-17T09:17:00.461Z,66.34
2023-01-17T09:18:00.469Z,65.86
2023-01-17T09:19:00.468Z,67.23
2023-01-17T09:20:00.449Z,66.18
2023-01-17T09:21:00.445Z,65.93
2023-01-17T09:22:00.438Z,65.55
2023-01-17T09:23:00.651Z,64.69
2023-01-17T09:24:00.817Z,64.94
2023-01-17T09:25:00.416Z,65.70
2023-01-17T09:26:00.428Z,66.41
2023-01-17T09:27:00.421Z,64.28
2023-01-17T09:28:00.441Z,63.80
2023-01-17T09:29:00.416Z,64.85
2023-01-17T09:30:00.449Z,65.33
2023-01-17T09:31:00.466Z,66.56
2023-01-17T09:32:00.396Z,65.99
2023-01-17T09:33:00.415Z,66.66
2023-01-17T09:34:00.387Z,65.80
2023-01-17T09:35:00.433Z,65.42
2023-01-17T09:36:00.387Z,66.09
2023-01-17T09:37:00.377Z,66.56
2023-01-17T09:38:00.406Z,66.18
2023-01-17T09:39:00.877Z,66.28
2023-01-17T09:40:00.388Z,66.18
2023-01-17T09:41:00.378Z,66.34
2023-01-17T09:42:00.363Z,66.91
2023-01-17T09:43:00.359Z,66.91
2023-01-17T09:44:00.357Z,67.10
2023-01-17T09:45:00.371Z,67.39
2023-01-17T09:46:00.404Z,67.07
2023-01-17T09:47:00.421Z,68.40
2023-01-17T09:48:00.359Z,67.55
2023-01-17T09:49:00.346Z,67.64
2023-01-17T09:50:00.346Z,67.80
2023-01-17T09:51:00.336Z,66.66
2023-01-17T09:52:00.347Z,67.80
2023-01-17T09:53:00.333Z,69.04
2023-01-17T09:54:00.339Z,68.18
2023-01-17T09:55:00.377Z,66.88
2023-01-17T09:56:00.535Z,68.08
2023-01-17T09:57:00.318Z,68.30
2023-01-17T09:58:00.324Z,68.40
2023-01-17T09:59:00.328Z,68.21
2023-01-17T10:00:03.564Z,68.18
2023-01-17T10:01:00.643Z,69.32
2023-01-17T10:02:00.454Z,69.64
2023-01-17T10:03:00.351Z,69.26
2023-01-17T10:04:00.351Z,66.91
2023-01-17T10:05:00.399Z,67.07
2023-01-17T10:06:00.310Z,67.64
2023-01-17T10:07:00.311Z,66.94
2023-01-17T10:08:01.985Z,67.07
2023-01-17T10:09:00.317Z,66.97
2023-01-17T10:10:00.325Z,67.64
2023-01-17T10:11:00.330Z,67.83
2023-01-17T10:12:00.327Z,66.69
2023-01-17T10:13:00.314Z,66.40
2023-01-17T10:14:00.308Z,65.55
2023-01-17T10:15:00.517Z,65.45
2023-01-17T10:16:00.969Z,66.24
2023-01-17T10:17:00.332Z,66.40
2023-01-17T10:18:00.718Z,67.07
2023-01-17T10:19:00.313Z,66.97
2023-01-17T10:20:00.316Z,66.63
2023-01-17T10:21:00.748Z,66.59
2023-01-17T10:22:00.335Z,67.10
2023-01-17T10:23:00.296Z,66.15
2023-01-17T10:24:00.318Z,66.05
2023-01-17T10:25:00.494Z,67.00
2023-01-17T10:26:00.300Z,66.44
2023-01-17T10:27:00.327Z,65.55
2023-01-17T10:28:00.291Z,64.78
2023-01-17T10:29:00.320Z,64.94
2023-01-17T10:30:00.291Z,66.75
2023-01-17T10:31:00.318Z,66.94
2023-01-17T10:32:00.299Z,67.74
2023-01-17T10:33:00.311Z,68.21
2023-01-17T10:34:00.303Z,67.35
2023-01-17T10:35:00.320Z,67.39
2023-01-17T10:36:00.320Z,66.82
2023-01-17T10:37:00.344Z,66.53
2023-01-17T10:38:00.318Z,66.44
2023-01-17T10:39:00.290Z,66.53
2023-01-17T10:40:00.504Z,65.39
2023-01-17T10:41:00.291Z,64.62
2023-01-17T10:42:00.273Z,64.59
2023-01-17T10:43:00.309Z,65.48
2023-01-17T10:44:00.485Z,66.44
2023-01-17T10:45:00.289Z,66.28
2023-01-17T10:46:00.314Z,64.85
2023-01-17T10:47:00.269Z,64.78
2023-01-17T10:48:00.270Z,63.23
2023-01-17T10:49:00.277Z,64.34
2023-01-17T10:50:00.281Z,64.47
2023-01-17T10:51:00.281Z,67.00
2023-01-17T10:52:01.484Z,70.39
2023-01-17T10:53:00.249Z,70.83
2023-01-17T10:54:01.881Z,72.51
2023-01-17T10:55:00.241Z,73.18
2023-01-17T10:56:00.234Z,74.69
2023-01-17T10:57:00.236Z,75.55
2023-01-17T10:58:00.231Z,76.40
2023-01-17T10:59:00.244Z,76.69
2023-01-17T11:00:00.223Z,76.97
2023-01-17T11:01:00.281Z,77.07
2023-01-17T11:02:00.274Z,78.40
2023-01-17T11:03:00.259Z,76.88
2023-01-17T11:04:00.217Z,75.99
2023-01-17T11:05:00.203Z,77.89
2023-01-17T11:06:00.177Z,77.07
2023-01-17T11:07:00.187Z,78.02
2023-01-17T11:08:00.192Z,77.73
2023-01-17T11:09:00.179Z,76.59
2023-01-17T11:10:00.179Z,76.73
2023-01-17T11:11:00.146Z,76.40
2023-01-17T11:12:00.125Z,76.06
2023-01-17T11:13:00.128Z,75.55
2023-01-17T11:14:00.140Z,75.49
2023-01-17T11:15:00.160Z,77.39
2023-01-17T11:16:00.202Z,75.96
2023-01-17T11:17:00.103Z,76.73
2023-01-17T11:18:00.108Z,76.44
2023-01-17T11:19:00.095Z,76.82
2023-01-17T11:20:00.090Z,76.82
2023-01-17T11:21:00.076Z,76.59
2023-01-17T11:22:00.065Z,76.59
2023-01-17T11:23:00.049Z,76.12
2023-01-17T11:24:00.049Z,75.64
2023-01-17T11:25:00.040Z,76.69
2023-01-17T11:26:00.022Z,75.93
2023-01-17T11:27:00.023Z,76.31
2023-01-17T11:27:59.995Z,75.70
2023-01-17T11:29:00.029Z,76.84
2023-01-17T11:30:00.006Z,77.98
2023-01-17T11:31:00.064Z,80.07
2023-01-17T11:31:59.969Z,80.74
2023-01-17T11:32:59.997Z,79.63
2023-01-17T11:33:59.989Z,78.30
2023-01-17T11:34:59.994Z,77.36
2023-01-17T11:35:59.968Z,77.31
2023-01-17T11:36:59.987Z,77.92
2023-01-17T11:37:59.959Z,77.92
2023-01-17T11:38:59.951Z,76.88
2023-01-17T11:39:59.978Z,75.93
2023-01-17T11:40:59.920Z,75.23
2023-01-17T11:41:59.898Z,76.46
2023-01-17T11:42:59.877Z,77.84
2023-01-17T11:43:59.929Z,79.08
2023-01-17T11:44:59.865Z,80.03
2023-01-17T11:45:59.928Z,79.36
2023-01-17T11:46:59.989Z,80.03
2023-01-17T11:47:59.839Z,79.55
2023-01-17T11:48:59.875Z,79.46
2023-01-17T11:49:59.829Z,79.27
2023-01-17T11:50:59.823Z,79.94
2023-01-17T11:51:59.785Z,79.74
2023-01-17T11:52:59.783Z,78.80
2023-01-17T11:53:59.771Z,78.80
2023-01-17T11:54:59.769Z,79.36
2023-01-17T11:55:59.757Z,79.94
2023-01-17T11:56:59.740Z,80.41
2023-01-17T11:57:59.755Z,79.74
2023-01-17T11:58:59.721Z,80.56
2023-01-17T11:59:59.710Z,81.60
2023-01-17T12:00:59.761Z,81.36
2023-01-17T12:01:59.710Z,81.88
2023-01-17T12:02:59.703Z,82.03
2023-01-17T12:03:59.701Z,81.74
2023-01-17T12:04:59.722Z,80.60
2023-01-17T12:05:59.657Z,80.75
2023-01-17T12:06:59.860Z,80.60
2023-01-17T12:07:59.669Z,80.56
2023-01-17T12:08:59.648Z,80.08
2023-01-17T12:09:59.612Z,79.61
2023-01-17T12:10:59.598Z,79.80
2023-01-17T12:11:59.597Z,80.18
2023-01-17T12:12:59.578Z,81.70
2023-01-17T12:13:59.584Z,83.31
2023-01-17T12:14:59.744Z,83.78
2023-01-17T12:15:59.780Z,83.88
2023-01-17T12:16:59.556Z,83.69
2023-01-17T12:17:59.520Z,83.31
2023-01-17T12:18:59.557Z,82.65
2023-01-17T12:19:59.497Z,81.88
2023-01-17T12:20:59.483Z,82.08
2023-01-17T12:21:59.714Z,80.08
2023-01-17T12:22:59.450Z,80.46
2023-01-17T12:23:59.449Z,80.94
2023-01-17T12:24:59.450Z,82.74
2023-01-17T12:25:59.471Z,82.46
2023-01-17T12:26:59.406Z,83.03
2023-01-17T12:27:59.462Z,83.50
2023-01-17T12:28:59.399Z,82.27
2023-01-17T12:29:59.404Z,81.88
2023-01-17T12:30:59.430Z,82.55
2023-01-17T12:31:59.361Z,82.84
2023-01-17T12:32:59.392Z,82.13
2023-01-17T12:33:59.344Z,82.08
2023-01-17T12:34:59.588Z,81.94
2023-01-17T12:35:59.312Z,81.94
2023-01-17T12:36:59.297Z,82.42
2023-01-17T12:38:04.999Z,81.85
2023-01-17T12:38:59.271Z,84.03
2023-01-17T12:39:59.268Z,83.46
2023-01-17T12:40:59.255Z,83.17
2023-01-17T12:41:59.243Z,82.42
2023-01-17T12:42:59.218Z,82.60
2023-01-17T12:43:59.206Z,82.79
2023-01-17T12:44:59.210Z,84.31
2023-01-17T12:45:59.222Z,83.08
2023-01-17T12:46:59.403Z,82.32
2023-01-17T12:47:59.158Z,81.94
2023-01-17T12:48:59.204Z,83.46
2023-01-17T12:49:59.157Z,84.69
2023-01-17T12:50:59.469Z,84.59
2023-01-17T12:51:59.126Z,84.03